Capt Craig — WDG7988 — position and weather

sailwx.info

Track history (hours):
 
Tides and Currents Weather Stations Pressure Air Temp Water Temp Dewpoint Dewpoint Depression Visibility Wind Speed Wind Dir Waves Ship Positions

Capt Craig

Owner: Capt Craig Towing, LLC, Hull, TX. More information available from US FCC via Universal Licensing System and Coast Guard Vessel Documentation Center.

Last reported at 2018-Jun-22 02:42 UTC. Time now 2018-Jun-22 03:03 UTC.
Position N 29°46' W 095°06'.

MMSI: 365789314.

Date/timePositionNaut miles runAvg speedWind from/ knotsBaromVisibWave heightAir tempDewpointWater temp
2018-Jun-22 02:42N 29°46' W 095°06'0 0.0
2018-Jun-22 02:06N 29°46' W 095°06'0 0.1
2018-Jun-22 02:00N 29°46' W 095°06'0 0.0
2018-Jun-22 01:23N 29°46' W 095°06'0 0.0
2018-Jun-21 23:32N 29°46' W 095°06'0 0.0
2018-Jun-21 23:30N 29°46' W 095°06'0 0.0
2018-Jun-21 23:00N 29°46' W 095°06'6 2.2
2018-Jun-21 20:18N 29°42' W 095°01'2 6.7
2018-Jun-21 20:00N 29°41' W 094°59'1 2.5
2018-Jun-21 19:30N 29°41' W 095°01'0 0.0
2018-Jun-21 18:59N 29°41' W 095°01'0 0.0
2018-Jun-21 18:26N 29°41' W 095°01'0 0.0
2018-Jun-21 17:58N 29°41' W 095°01'0 0.0
2018-Jun-21 17:29N 29°41' W 095°01'7 0.7
2018-Jun-21 06:57N 29°46' W 095°06'0 0.0
2018-Jun-21 06:30N 29°46' W 095°06'0 0.0
2018-Jun-21 05:49N 29°46' W 095°06'0 0.0
2018-Jun-21 05:20N 29°46' W 095°06'0 0.0
2018-Jun-20 01:40N 29°46' W 095°06'0 0.0
2018-Jun-20 01:24N 29°46' W 095°06'  
2018-Jun-17 18:41N 29°44' W 095°01'0 0.0
2018-Jun-17 18:28N 29°44' W 095°01'0 0.0
2018-Jun-17 18:00N 29°44' W 095°01'1 0.0
2018-Jun-16 05:03N 29°43' W 095°01'1 6.7
2018-Jun-16 04:56N 29°42' W 095°01'3 6.6
2018-Jun-16 04:26N 29°40' W 094°58'3 7.1
2018-Jun-16 03:57N 29°37' W 094°58'3 6.1
2018-Jun-16 03:30N 29°34' W 094°59'2 3.8
2018-Jun-16 02:58N 29°33' W 095°01'0 0.0
2018-Jun-16 02:27N 29°33' W 095°01'0 0.0
2018-Jun-16 02:00N 29°33' W 095°01'0 0.0
2018-Jun-16 01:30N 29°33' W 095°01'0 0.0
2018-Jun-16 01:00N 29°33' W 095°01'3 4.9
2018-Jun-16 00:30N 29°34' W 094°58'4 6.3
2018-Jun-15 23:49N 29°39' W 094°58'3 7.7
2018-Jun-15 23:27N 29°41' W 094°59'8 0.2
2018-Jun-14 04:17N 29°47' W 095°05'0 0.0
2018-Jun-14 03:57N 29°47' W 095°05'1 0.7
2018-Jun-14 03:12N 29°47' W 095°05'5 0.2
2018-Jun-13 04:26N 29°45' W 095°11'3 6.8
2018-Jun-13 04:00N 29°44' W 095°08'  
Track history (hours):
 
Tides and Currents Weather Stations Pressure Air Temp Water Temp Dewpoint Dewpoint Depression Visibility Wind Speed Wind Dir Waves Ship Positions

Capt Craig

Owner: Capt Craig Towing, LLC, Hull, TX. More information available from US FCC via Universal Licensing System and Coast Guard Vessel Documentation Center.

Last reported at 2018-Jun-22 02:42 UTC. Time now 2018-Jun-22 03:03 UTC.
Position N 29°46' W 095°06'.

MMSI: 365789314.

Date/timePositionNaut miles runAvg speedWind from/ knotsBaromVisibWave heightAir tempDewpointWater temp
2018-Jun-22 02:42N 29°46' W 095°06'0 0.0
2018-Jun-22 02:06N 29°46' W 095°06'0 0.1
2018-Jun-22 02:00N 29°46' W 095°06'0 0.0
2018-Jun-22 01:23N 29°46' W 095°06'0 0.0
2018-Jun-21 23:32N 29°46' W 095°06'0 0.0
2018-Jun-21 23:30N 29°46' W 095°06'0 0.0
2018-Jun-21 23:00N 29°46' W 095°06'6 2.2
2018-Jun-21 20:18N 29°42' W 095°01'2 6.7
2018-Jun-21 20:00N 29°41' W 094°59'1 2.5
2018-Jun-21 19:30N 29°41' W 095°01'0 0.0
2018-Jun-21 18:59N 29°41' W 095°01'0 0.0
2018-Jun-21 18:26N 29°41' W 095°01'0 0.0
2018-Jun-21 17:58N 29°41' W 095°01'0 0.0
2018-Jun-21 17:29N 29°41' W 095°01'7 0.7
2018-Jun-21 06:57N 29°46' W 095°06'0 0.0
2018-Jun-21 06:30N 29°46' W 095°06'0 0.0
2018-Jun-21 05:49N 29°46' W 095°06'0 0.0
2018-Jun-21 05:20N 29°46' W 095°06'0 0.0
2018-Jun-20 01:40N 29°46' W 095°06'0 0.0
2018-Jun-20 01:24N 29°46' W 095°06'  
2018-Jun-17 18:41N 29°44' W 095°01'0 0.0
2018-Jun-17 18:28N 29°44' W 095°01'0 0.0
2018-Jun-17 18:00N 29°44' W 095°01'1 0.0
2018-Jun-16 05:03N 29°43' W 095°01'1 6.7
2018-Jun-16 04:56N 29°42' W 095°01'3 6.6
2018-Jun-16 04:26N 29°40' W 094°58'3 7.1
2018-Jun-16 03:57N 29°37' W 094°58'3 6.1
2018-Jun-16 03:30N 29°34' W 094°59'2 3.8
2018-Jun-16 02:58N 29°33' W 095°01'0 0.0
2018-Jun-16 02:27N 29°33' W 095°01'0 0.0
2018-Jun-16 02:00N 29°33' W 095°01'0 0.0
2018-Jun-16 01:30N 29°33' W 095°01'0 0.0
2018-Jun-16 01:00N 29°33' W 095°01'3 4.9
2018-Jun-16 00:30N 29°34' W 094°58'4 6.3
2018-Jun-15 23:49N 29°39' W 094°58'3 7.7
2018-Jun-15 23:27N 29°41' W 094°59'8 0.2
2018-Jun-14 04:17N 29°47' W 095°05'0 0.0
2018-Jun-14 03:57N 29°47' W 095°05'1 0.7
2018-Jun-14 03:12N 29°47' W 095°05'5 0.2
2018-Jun-13 04:26N 29°45' W 095°11'3 6.8
2018-Jun-13 04:00N 29°44' W 095°08'  

Dump ship's entire track history